sensor_id;sensor_type;location;lat;lon;timestamp;temperature;humidity
37782;DHT22;23621;50.878;4.584;2022-09-27T00:01:24;17.40;75.80
37782;DHT22;23621;50.878;4.584;2022-09-27T00:03:52;17.30;75.90
37782;DHT22;23621;50.878;4.584;2022-09-27T00:06:26;17.30;75.90
37782;DHT22;23621;50.878;4.584;2022-09-27T00:08:53;17.40;76.00
37782;DHT22;23621;50.878;4.584;2022-09-27T00:13:50;17.40;76.00
37782;DHT22;23621;50.878;4.584;2022-09-27T00:16:17;17.40;75.90
37782;DHT22;23621;50.878;4.584;2022-09-27T00:18:44;17.40;75.90
37782;DHT22;23621;50.878;4.584;2022-09-27T00:21:12;17.40;75.90
37782;DHT22;23621;50.878;4.584;2022-09-27T00:23:40;17.40;76.10
37782;DHT22;23621;50.878;4.584;2022-09-27T00:26:09;17.50;76.00
37782;DHT22;23621;50.878;4.584;2022-09-27T00:28:37;17.40;76.10
37782;DHT22;23621;50.878;4.584;2022-09-27T00:31:04;17.40;76.00
37782;DHT22;23621;50.878;4.584;2022-09-27T00:33:36;17.40;76.20
37782;DHT22;23621;50.878;4.584;2022-09-27T00:36:04;17.40;76.00
37782;DHT22;23621;50.878;4.584;2022-09-27T00:38:31;17.40;76.00
37782;DHT22;23621;50.878;4.584;2022-09-27T00:40:58;17.40;75.90
37782;DHT22;23621;50.878;4.584;2022-09-27T00:43:25;17.50;75.90
37782;DHT22;23621;50.878;4.584;2022-09-27T00:46:03;17.40;75.90
37782;DHT22;23621;50.878;4.584;2022-09-27T00:48:31;17.40;75.90
37782;DHT22;23621;50.878;4.584;2022-09-27T00:51:02;17.50;75.80
37782;DHT22;23621;50.878;4.584;2022-09-27T00:53:45;17.60;75.90
37782;DHT22;23621;50.878;4.584;2022-09-27T00:56:27;17.60;75.80
37782;DHT22;23621;50.878;4.584;2022-09-27T00:59:06;17.70;75.70
37782;DHT22;23621;50.878;4.584;2022-09-27T01:01:35;17.70;75.40
37782;DHT22;23621;50.878;4.584;2022-09-27T01:04:05;17.70;76.20
37782;DHT22;23621;50.878;4.584;2022-09-27T01:06:33;17.70;75.40
37782;DHT22;23621;50.878;4.584;2022-09-27T01:09:01;17.80;75.40
37782;DHT22;23621;50.878;4.584;2022-09-27T01:11:41;17.90;75.40
37782;DHT22;23621;50.878;4.584;2022-09-27T01:22:13;17.70;75.10
37782;DHT22;23621;50.878;4.584;2022-09-27T01:36:21;17.60;74.70
37782;DHT22;23621;50.878;4.584;2022-09-27T01:42:10;17.50;74.50
37782;DHT22;23621;50.878;4.584;2022-09-27T01:44:59;17.40;74.80
37782;DHT22;23621;50.878;4.584;2022-09-27T01:47:44;17.40;75.00
37782;DHT22;23621;50.878;4.584;2022-09-27T01:50:37;17.40;75.00
37782;DHT22;23621;50.878;4.584;2022-09-27T01:53:05;17.40;74.80
37782;DHT22;23621;50.878;4.584;2022-09-27T01:55:36;17.50;74.80
37782;DHT22;23621;50.878;4.584;2022-09-27T01:58:11;17.40;74.80
37782;DHT22;23621;50.878;4.584;2022-09-27T02:00:41;17.40;75.00
37782;DHT22;23621;50.878;4.584;2022-09-27T02:03:13;17.40;75.00
37782;DHT22;23621;50.878;4.584;2022-09-27T02:05:45;17.40;74.90
37782;DHT22;23621;50.878;4.584;2022-09-27T02:08:31;17.30;75.10
37782;DHT22;23621;50.878;4.584;2022-09-27T02:11:01;17.30;75.30
37782;DHT22;23621;50.878;4.584;2022-09-27T02:19:15;17.40;75.20
37782;DHT22;23621;50.878;4.584;2022-09-27T02:24:31;17.20;75.20
37782;DHT22;23621;50.878;4.584;2022-09-27T02:27:12;17.20;75.10
37782;DHT22;23621;50.878;4.584;2022-09-27T02:29:45;17.20;75.30
37782;DHT22;23621;50.878;4.584;2022-09-27T02:32:13;17.10;75.30
37782;DHT22;23621;50.878;4.584;2022-09-27T02:34:41;17.00;75.20
37782;DHT22;23621;50.878;4.584;2022-09-27T02:37:09;16.80;75.20
37782;DHT22;23621;50.878;4.584;2022-09-27T02:39:37;16.80;75.00
37782;DHT22;23621;50.878;4.584;2022-09-27T02:42:04;16.80;75.00
37782;DHT22;23621;50.878;4.584;2022-09-27T02:44:32;16.90;75.10
37782;DHT22;23621;50.878;4.584;2022-09-27T02:52:47;16.90;74.40
37782;DHT22;23621;50.878;4.584;2022-09-27T03:01:01;17.10;74.60
37782;DHT22;23621;50.878;4.584;2022-09-27T03:03:44;17.20;74.60
37782;DHT22;23621;50.878;4.584;2022-09-27T03:06:13;17.20;74.60
37782;DHT22;23621;50.878;4.584;2022-09-27T03:08:43;17.20;74.50
37782;DHT22;23621;50.878;4.584;2022-09-27T03:11:10;17.30;74.40
37782;DHT22;23621;50.878;4.584;2022-09-27T03:13:36;17.30;74.30
37782;DHT22;23621;50.878;4.584;2022-09-27T03:16:24;17.40;74.20
37782;DHT22;23621;50.878;4.584;2022-09-27T03:18:51;17.30;74.00
37782;DHT22;23621;50.878;4.584;2022-09-27T03:21:18;17.30;74.00
37782;DHT22;23621;50.878;4.584;2022-09-27T03:23:45;17.20;73.90
37782;DHT22;23621;50.878;4.584;2022-09-27T03:26:11;17.20;73.90
37782;DHT22;23621;50.878;4.584;2022-09-27T03:28:38;17.10;74.10
37782;DHT22;23621;50.878;4.584;2022-09-27T03:31:05;17.10;74.10
37782;DHT22;23621;50.878;4.584;2022-09-27T03:33:32;17.20;74.20
37782;DHT22;23621;50.878;4.584;2022-09-27T03:35:59;17.00;74.10
37782;DHT22;23621;50.878;4.584;2022-09-27T03:38:26;17.00;74.10
37782;DHT22;23621;50.878;4.584;2022-09-27T03:40:53;17.00;74.10
37782;DHT22;23621;50.878;4.584;2022-09-27T03:43:19;17.00;74.10
37782;DHT22;23621;50.878;4.584;2022-09-27T03:45:46;16.90;74.10
37782;DHT22;23621;50.878;4.584;2022-09-27T03:48:13;17.00;74.30
37782;DHT22;23621;50.878;4.584;2022-09-27T03:50:40;17.10;74.30
37782;DHT22;23621;50.878;4.584;2022-09-27T03:53:07;17.10;74.20
37782;DHT22;23621;50.878;4.584;2022-09-27T03:55:34;17.20;74.20
37782;DHT22;23621;50.878;4.584;2022-09-27T03:58:01;17.20;74.20
37782;DHT22;23621;50.878;4.584;2022-09-27T04:00:28;17.20;74.20
37782;DHT22;23621;50.878;4.584;2022-09-27T04:02:58;17.30;74.20
37782;DHT22;23621;50.878;4.584;2022-09-27T04:05:27;17.30;74.10
37782;DHT22;23621;50.878;4.584;2022-09-27T04:07:54;17.40;74.10
37782;DHT22;23621;50.878;4.584;2022-09-27T04:10:22;17.40;74.00
37782;DHT22;23621;50.878;4.584;2022-09-27T04:12:49;17.40;73.90
37782;DHT22;23621;50.878;4.584;2022-09-27T04:15:16;17.30;73.80
37782;DHT22;23621;50.878;4.584;2022-09-27T04:17:43;17.40;73.90
37782;DHT22;23621;50.878;4.584;2022-09-27T04:20:10;17.30;73.80
37782;DHT22;23621;50.878;4.584;2022-09-27T04:22:41;17.40;73.80
37782;DHT22;23621;50.878;4.584;2022-09-27T04:25:09;17.30;73.80
37782;DHT22;23621;50.878;4.584;2022-09-27T04:27:36;17.30;73.80
37782;DHT22;23621;50.878;4.584;2022-09-27T04:30:04;17.30;73.70
37782;DHT22;23621;50.878;4.584;2022-09-27T04:32:31;17.30;73.80
37782;DHT22;23621;50.878;4.584;2022-09-27T04:34:58;17.30;73.70
37782;DHT22;23621;50.878;4.584;2022-09-27T04:37:43;17.30;73.60
37782;DHT22;23621;50.878;4.584;2022-09-27T04:40:13;17.30;73.60
37782;DHT22;23621;50.878;4.584;2022-09-27T04:42:42;17.30;73.60
37782;DHT22;23621;50.878;4.584;2022-09-27T04:45:09;17.20;73.60
37782;DHT22;23621;50.878;4.584;2022-09-27T04:47:48;17.30;73.80
37782;DHT22;23621;50.878;4.584;2022-09-27T04:50:16;17.30;73.80
37782;DHT22;23621;50.878;4.584;2022-09-27T04:52:43;17.30;73.70
37782;DHT22;23621;50.878;4.584;2022-09-27T04:55:10;17.30;73.80
37782;DHT22;23621;50.878;4.584;2022-09-27T04:57:37;17.30;73.80
37782;DHT22;23621;50.878;4.584;2022-09-27T05:00:04;17.30;73.80
37782;DHT22;23621;50.878;4.584;2022-09-27T05:02:31;17.30;73.80
37782;DHT22;23621;50.878;4.584;2022-09-27T05:04:58;17.30;73.80
37782;DHT22;23621;50.878;4.584;2022-09-27T05:07:26;17.30;73.80
37782;DHT22;23621;50.878;4.584;2022-09-27T05:09:53;17.30;73.70
37782;DHT22;23621;50.878;4.584;2022-09-27T05:12:21;17.20;73.70
37782;DHT22;23621;50.878;4.584;2022-09-27T05:14:48;17.20;73.90
37782;DHT22;23621;50.878;4.584;2022-09-27T05:17:15;17.20;74.00
37782;DHT22;23621;50.878;4.584;2022-09-27T05:19:44;17.20;74.00
37782;DHT22;23621;50.878;4.584;2022-09-27T05:22:11;17.20;73.90
37782;DHT22;23621;50.878;4.584;2022-09-27T05:24:37;17.20;74.00
37782;DHT22;23621;50.878;4.584;2022-09-27T05:27:06;17.20;74.00
37782;DHT22;23621;50.878;4.584;2022-09-27T05:29:34;17.10;74.00
37782;DHT22;23621;50.878;4.584;2022-09-27T05:32:01;17.10;74.20
37782;DHT22;23621;50.878;4.584;2022-09-27T05:34:28;17.10;74.30
37782;DHT22;23621;50.878;4.584;2022-09-27T05:36:57;17.00;74.30
37782;DHT22;23621;50.878;4.584;2022-09-27T05:39:24;16.90;74.30
37782;DHT22;23621;50.878;4.584;2022-09-27T05:41:51;16.90;74.40
37782;DHT22;23621;50.878;4.584;2022-09-27T05:44:21;16.90;74.50
37782;DHT22;23621;50.878;4.584;2022-09-27T05:46:48;17.00;74.40
37782;DHT22;23621;50.878;4.584;2022-09-27T05:49:14;17.10;74.30
37782;DHT22;23621;50.878;4.584;2022-09-27T05:51:41;17.10;74.20
37782;DHT22;23621;50.878;4.584;2022-09-27T05:54:08;17.20;74.30
37782;DHT22;23621;50.878;4.584;2022-09-27T05:56:35;17.10;74.10
37782;DHT22;23621;50.878;4.584;2022-09-27T05:59:02;17.00;74.10
37782;DHT22;23621;50.878;4.584;2022-09-27T06:01:29;17.00;74.30
37782;DHT22;23621;50.878;4.584;2022-09-27T06:03:56;17.00;74.30
37782;DHT22;23621;50.878;4.584;2022-09-27T06:06:23;17.10;74.40
37782;DHT22;23621;50.878;4.584;2022-09-27T06:08:50;17.10;74.30
37782;DHT22;23621;50.878;4.584;2022-09-27T06:11:17;17.10;74.30
37782;DHT22;23621;50.878;4.584;2022-09-27T06:13:43;17.00;74.30
37782;DHT22;23621;50.878;4.584;2022-09-27T06:16:11;17.10;74.50
37782;DHT22;23621;50.878;4.584;2022-09-27T06:18:38;17.10;74.50
37782;DHT22;23621;50.878;4.584;2022-09-27T06:21:05;17.10;74.40
37782;DHT22;23621;50.878;4.584;2022-09-27T06:23:32;17.10;74.30
37782;DHT22;23621;50.878;4.584;2022-09-27T06:26:04;17.20;74.30
37782;DHT22;23621;50.878;4.584;2022-09-27T06:28:32;17.30;74.20
37782;DHT22;23621;50.878;4.584;2022-09-27T06:31:01;17.20;74.60
37782;DHT22;23621;50.878;4.584;2022-09-27T06:33:31;17.20;73.90
37782;DHT22;23621;50.878;4.584;2022-09-27T06:36:02;17.20;73.90
37782;DHT22;23621;50.878;4.584;2022-09-27T06:38:30;17.10;73.90
37782;DHT22;23621;50.878;4.584;2022-09-27T06:41:03;17.10;73.80
37782;DHT22;23621;50.878;4.584;2022-09-27T06:43:32;17.10;73.80
37782;DHT22;23621;50.878;4.584;2022-09-27T06:46:00;17.20;73.90
37782;DHT22;23621;50.878;4.584;2022-09-27T06:48:32;17.20;73.70
37782;DHT22;23621;50.878;4.584;2022-09-27T06:50:59;17.20;73.60
37782;DHT22;23621;50.878;4.584;2022-09-27T06:53:26;17.30;73.60
37782;DHT22;23621;50.878;4.584;2022-09-27T06:55:58;17.30;73.50
37782;DHT22;23621;50.878;4.584;2022-09-27T06:58:29;17.30;73.50
37782;DHT22;23621;50.878;4.584;2022-09-27T07:01:14;17.40;73.60
37782;DHT22;23621;50.878;4.584;2022-09-27T07:03:43;17.40;73.50
37782;DHT22;23621;50.878;4.584;2022-09-27T07:06:19;17.40;73.50
37782;DHT22;23621;50.878;4.584;2022-09-27T07:08:50;17.40;73.50
37782;DHT22;23621;50.878;4.584;2022-09-27T07:11:18;17.30;73.50
37782;DHT22;23621;50.878;4.584;2022-09-27T07:13:45;17.20;73.60
37782;DHT22;23621;50.878;4.584;2022-09-27T07:16:14;17.10;73.70
37782;DHT22;23621;50.878;4.584;2022-09-27T07:18:42;17.10;74.00
37782;DHT22;23621;50.878;4.584;2022-09-27T07:21:09;17.10;74.00
37782;DHT22;23621;50.878;4.584;2022-09-27T07:23:38;17.00;74.00
37782;DHT22;23621;50.878;4.584;2022-09-27T07:26:05;17.10;74.10
37782;DHT22;23621;50.878;4.584;2022-09-27T07:28:34;17.10;74.20
37782;DHT22;23621;50.878;4.584;2022-09-27T07:31:01;17.10;74.20
37782;DHT22;23621;50.878;4.584;2022-09-27T07:33:29;17.20;74.20
37782;DHT22;23621;50.878;4.584;2022-09-27T07:35:56;17.10;75.10
37782;DHT22;23621;50.878;4.584;2022-09-27T07:38:23;17.10;74.50
37782;DHT22;23621;50.878;4.584;2022-09-27T07:40:50;16.90;74.60
37782;DHT22;23621;50.878;4.584;2022-09-27T07:43:17;16.90;74.90
37782;DHT22;23621;50.878;4.584;2022-09-27T07:45:45;17.00;74.70
37782;DHT22;23621;50.878;4.584;2022-09-27T07:48:14;17.10;74.70
37782;DHT22;23621;50.878;4.584;2022-09-27T07:50:41;17.20;74.60
37782;DHT22;23621;50.878;4.584;2022-09-27T07:53:08;17.10;74.70
37782;DHT22;23621;50.878;4.584;2022-09-27T07:55:39;17.10;74.70
37782;DHT22;23621;50.878;4.584;2022-09-27T07:58:08;17.00;75.00
37782;DHT22;23621;50.878;4.584;2022-09-27T08:00:36;17.00;75.10
37782;DHT22;23621;50.878;4.584;2022-09-27T08:03:09;17.10;75.20
37782;DHT22;23621;50.878;4.584;2022-09-27T08:05:36;17.00;75.30
37782;DHT22;23621;50.878;4.584;2022-09-27T08:08:04;17.10;75.20
37782;DHT22;23621;50.878;4.584;2022-09-27T08:10:32;17.10;75.10
37782;DHT22;23621;50.878;4.584;2022-09-27T08:13:03;17.00;75.10
37782;DHT22;23621;50.878;4.584;2022-09-27T08:15:31;17.10;75.10
37782;DHT22;23621;50.878;4.584;2022-09-27T08:17:58;17.10;75.20
37782;DHT22;23621;50.878;4.584;2022-09-27T08:20:25;17.20;75.10
37782;DHT22;23621;50.878;4.584;2022-09-27T08:22:52;17.10;75.20
37782;DHT22;23621;50.878;4.584;2022-09-27T08:25:19;17.10;75.10
37782;DHT22;23621;50.878;4.584;2022-09-27T08:27:59;17.00;75.30
37782;DHT22;23621;50.878;4.584;2022-09-27T08:30:27;17.00;75.40
37782;DHT22;23621;50.878;4.584;2022-09-27T08:32:57;17.10;75.40
37782;DHT22;23621;50.878;4.584;2022-09-27T08:35:25;17.30;75.20
37782;DHT22;23621;50.878;4.584;2022-09-27T08:37:55;17.40;75.10
37782;DHT22;23621;50.878;4.584;2022-09-27T08:40:26;17.30;74.90
37782;DHT22;23621;50.878;4.584;2022-09-27T08:42:59;17.30;74.70
37782;DHT22;23621;50.878;4.584;2022-09-27T08:45:44;17.20;74.60
37782;DHT22;23621;50.878;4.584;2022-09-27T08:48:16;17.30;74.90
37782;DHT22;23621;50.878;4.584;2022-09-27T08:50:44;17.40;74.90
37782;DHT22;23621;50.878;4.584;2022-09-27T08:55:42;17.40;74.90
37782;DHT22;23621;50.878;4.584;2022-09-27T09:01:09;17.40;74.30
37782;DHT22;23621;50.878;4.584;2022-09-27T09:03:42;17.10;74.90
37782;DHT22;23621;50.878;4.584;2022-09-27T09:11:43;17.00;75.10
37782;DHT22;23621;50.878;4.584;2022-09-27T09:20:26;17.00;75.00
37782;DHT22;23621;50.878;4.584;2022-09-27T09:25:41;17.30;75.00
37782;DHT22;23621;50.878;4.584;2022-09-27T09:31:18;17.40;74.60
37782;DHT22;23621;50.878;4.584;2022-09-27T09:33:58;17.40;74.60
37782;DHT22;23621;50.878;4.584;2022-09-27T09:50:28;17.40;75.10
37782;DHT22;23621;50.878;4.584;2022-09-27T09:56:04;17.50;75.10
37782;DHT22;23621;50.878;4.584;2022-09-27T09:58:55;17.60;75.10
37782;DHT22;23621;50.878;4.584;2022-09-27T10:01:33;17.80;75.30
37782;DHT22;23621;50.878;4.584;2022-09-27T10:04:02;18.00;75.10
37782;DHT22;23621;50.878;4.584;2022-09-27T10:06:30;18.00;74.80
37782;DHT22;23621;50.878;4.584;2022-09-27T10:08:58;18.10;75.20
37782;DHT22;23621;50.878;4.584;2022-09-27T10:11:30;18.00;75.10
37782;DHT22;23621;50.878;4.584;2022-09-27T10:14:02;17.90;75.00
37782;DHT22;23621;50.878;4.584;2022-09-27T10:16:29;17.80;75.30
37782;DHT22;23621;50.878;4.584;2022-09-27T10:18:59;17.80;75.00
37782;DHT22;23621;50.878;4.584;2022-09-27T10:21:28;17.90;75.20
37782;DHT22;23621;50.878;4.584;2022-09-27T10:24:13;17.90;75.10
37782;DHT22;23621;50.878;4.584;2022-09-27T10:26:46;18.00;75.00
37782;DHT22;23621;50.878;4.584;2022-09-27T10:29:32;18.00;74.70
37782;DHT22;23621;50.878;4.584;2022-09-27T10:32:04;18.10;74.10
37782;DHT22;23621;50.878;4.584;2022-09-27T10:34:44;18.20;74.80
37782;DHT22;23621;50.878;4.584;2022-09-27T10:39:38;18.40;75.10
37782;DHT22;23621;50.878;4.584;2022-09-27T10:42:30;18.40;74.80
37782;DHT22;23621;50.878;4.584;2022-09-27T10:47:48;18.50;74.30
37782;DHT22;23621;50.878;4.584;2022-09-27T10:50:21;18.50;74.30
37782;DHT22;23621;50.878;4.584;2022-09-27T10:53:12;18.60;74.50
37782;DHT22;23621;50.878;4.584;2022-09-27T10:55:42;18.60;74.40
37782;DHT22;23621;50.878;4.584;2022-09-27T10:58:23;18.70;74.40
37782;DHT22;23621;50.878;4.584;2022-09-27T11:00:56;18.80;74.10
37782;DHT22;23621;50.878;4.584;2022-09-27T11:03:23;18.80;74.00
37782;DHT22;23621;50.878;4.584;2022-09-27T11:05:51;18.70;73.80
37782;DHT22;23621;50.878;4.584;2022-09-27T11:08:31;18.70;73.90
37782;DHT22;23621;50.878;4.584;2022-09-27T11:13:40;18.50;72.30
37782;DHT22;23621;50.878;4.584;2022-09-27T11:21:42;18.50;73.60
37782;DHT22;23621;50.878;4.584;2022-09-27T11:24:35;18.60;73.10
37782;DHT22;23621;50.878;4.584;2022-09-27T11:30:03;18.80;73.50
37782;DHT22;23621;50.878;4.584;2022-09-27T11:35:26;19.10;72.60
37782;DHT22;23621;50.878;4.584;2022-09-27T11:38:18;19.00;71.80
37782;DHT22;23621;50.878;4.584;2022-09-27T11:46:34;18.80;71.00
37782;DHT22;23621;50.878;4.584;2022-09-27T11:58:20;18.80;69.20
37782;DHT22;23621;50.878;4.584;2022-09-27T12:06:10;18.70;68.70
37782;DHT22;23621;50.878;4.584;2022-09-27T12:09:21;18.60;67.20
37782;DHT22;23621;50.878;4.584;2022-09-27T12:16:53;18.50;66.20
37782;DHT22;23621;50.878;4.584;2022-09-27T12:19:27;18.50;66.80
37782;DHT22;23621;50.878;4.584;2022-09-27T12:21:57;18.50;67.30
37782;DHT22;23621;50.878;4.584;2022-09-27T12:24:27;18.60;67.70
37782;DHT22;23621;50.878;4.584;2022-09-27T12:27:06;18.70;67.70
37782;DHT22;23621;50.878;4.584;2022-09-27T12:29:37;18.80;67.80
37782;DHT22;23621;50.878;4.584;2022-09-27T12:35:29;19.10;68.10
37782;DHT22;23621;50.878;4.584;2022-09-27T12:40:34;19.00;67.90
37782;DHT22;23621;50.878;4.584;2022-09-27T12:43:22;19.10;67.90
37782;DHT22;23621;50.878;4.584;2022-09-27T12:46:07;19.20;67.40
37782;DHT22;23621;50.878;4.584;2022-09-27T12:51:22;19.40;65.60
37782;DHT22;23621;50.878;4.584;2022-09-27T13:06:13;19.30;64.70
37782;DHT22;23621;50.878;4.584;2022-09-27T13:14:19;19.50;63.90
37782;DHT22;23621;50.878;4.584;2022-09-27T13:16:47;19.40;64.00
37782;DHT22;23621;50.878;4.584;2022-09-27T13:19:45;19.40;64.80
37782;DHT22;23621;50.878;4.584;2022-09-27T13:24:53;19.10;64.90
37782;DHT22;23621;50.878;4.584;2022-09-27T13:32:38;19.30;65.00
37782;DHT22;23621;50.878;4.584;2022-09-27T13:35:22;19.20;64.80
37782;DHT22;23621;50.878;4.584;2022-09-27T13:37:56;19.20;63.90
37782;DHT22;23621;50.878;4.584;2022-09-27T13:40:37;19.40;65.10
37782;DHT22;23621;50.878;4.584;2022-09-27T13:51:27;19.60;64.20
37782;DHT22;23621;50.878;4.584;2022-09-27T13:54:05;19.60;63.10
37782;DHT22;23621;50.878;4.584;2022-09-27T13:59:32;19.50;64.10
37782;DHT22;23621;50.878;4.584;2022-09-27T14:02:18;19.40;63.10
37782;DHT22;23621;50.878;4.584;2022-09-27T14:04:50;19.40;64.00
37782;DHT22;23621;50.878;4.584;2022-09-27T14:07:23;19.60;64.20
37782;DHT22;23621;50.878;4.584;2022-09-27T14:09:54;19.60;63.90
37782;DHT22;23621;50.878;4.584;2022-09-27T14:12:35;19.80;64.00
37782;DHT22;23621;50.878;4.584;2022-09-27T14:15:03;19.90;63.90
37782;DHT22;23621;50.878;4.584;2022-09-27T14:17:33;19.80;63.30
37782;DHT22;23621;50.878;4.584;2022-09-27T14:20:00;19.90;64.00
37782;DHT22;23621;50.878;4.584;2022-09-27T14:22:28;20.00;63.70
37782;DHT22;23621;50.878;4.584;2022-09-27T14:24:55;20.10;63.60
37782;DHT22;23621;50.878;4.584;2022-09-27T14:27:28;20.10;64.00
37782;DHT22;23621;50.878;4.584;2022-09-27T14:29:58;20.20;63.90
37782;DHT22;23621;50.878;4.584;2022-09-27T14:32:32;20.20;63.40
37782;DHT22;23621;50.878;4.584;2022-09-27T14:35:22;20.30;63.10
37782;DHT22;23621;50.878;4.584;2022-09-27T14:38:18;20.30;63.00
37782;DHT22;23621;50.878;4.584;2022-09-27T14:41:05;20.30;62.90
37782;DHT22;23621;50.878;4.584;2022-09-27T14:43:42;20.30;63.50
37782;DHT22;23621;50.878;4.584;2022-09-27T14:46:26;20.40;63.70
37782;DHT22;23621;50.878;4.584;2022-09-27T14:48:53;20.30;63.50
37782;DHT22;23621;50.878;4.584;2022-09-27T14:51:27;20.20;63.40
37782;DHT22;23621;50.878;4.584;2022-09-27T14:53:56;20.20;62.70
37782;DHT22;23621;50.878;4.584;2022-09-27T14:56:37;20.00;62.80
37782;DHT22;23621;50.878;4.584;2022-09-27T14:59:14;20.10;63.40
37782;DHT22;23621;50.878;4.584;2022-09-27T15:01:51;20.00;63.00
37782;DHT22;23621;50.878;4.584;2022-09-27T15:04:19;20.00;63.20
37782;DHT22;23621;50.878;4.584;2022-09-27T15:06:48;20.00;63.70
37782;DHT22;23621;50.878;4.584;2022-09-27T15:09:16;20.00;64.20
37782;DHT22;23621;50.878;4.584;2022-09-27T15:11:45;19.90;64.50
37782;DHT22;23621;50.878;4.584;2022-09-27T15:14:16;19.90;65.30
37782;DHT22;23621;50.878;4.584;2022-09-27T15:16:47;19.90;66.30
37782;DHT22;23621;50.878;4.584;2022-09-27T15:19:26;19.80;67.80
37782;DHT22;23621;50.878;4.584;2022-09-27T15:21:55;19.60;68.30
37782;DHT22;23621;50.878;4.584;2022-09-27T15:24:39;19.50;68.60
37782;DHT22;23621;50.878;4.584;2022-09-27T15:27:22;19.50;69.20
37782;DHT22;23621;50.878;4.584;2022-09-27T15:29:51;19.50;69.60
37782;DHT22;23621;50.878;4.584;2022-09-27T15:32:26;19.40;69.70
37782;DHT22;23621;50.878;4.584;2022-09-27T15:34:56;19.40;70.10
37782;DHT22;23621;50.878;4.584;2022-09-27T15:37:36;19.30;70.10
37782;DHT22;23621;50.878;4.584;2022-09-27T15:42:55;19.40;71.20
37782;DHT22;23621;50.878;4.584;2022-09-27T15:45:31;19.40;71.00
37782;DHT22;23621;50.878;4.584;2022-09-27T15:48:17;19.50;71.10
37782;DHT22;23621;50.878;4.584;2022-09-27T15:50:43;19.60;72.00
37782;DHT22;23621;50.878;4.584;2022-09-27T15:53:39;19.60;71.70
37782;DHT22;23621;50.878;4.584;2022-09-27T15:56:06;19.60;72.00
37782;DHT22;23621;50.878;4.584;2022-09-27T15:58:33;19.60;71.90
37782;DHT22;23621;50.878;4.584;2022-09-27T16:01:03;19.60;71.90
37782;DHT22;23621;50.878;4.584;2022-09-27T16:03:31;19.70;71.90
37782;DHT22;23621;50.878;4.584;2022-09-27T16:06:01;19.70;71.70
37782;DHT22;23621;50.878;4.584;2022-09-27T16:08:28;19.70;71.60
37782;DHT22;23621;50.878;4.584;2022-09-27T16:10:56;19.70;71.60
37782;DHT22;23621;50.878;4.584;2022-09-27T16:13:24;19.70;71.40
37782;DHT22;23621;50.878;4.584;2022-09-27T16:15:59;19.70;71.50
37782;DHT22;23621;50.878;4.584;2022-09-27T16:18:27;19.70;71.40
37782;DHT22;23621;50.878;4.584;2022-09-27T16:20:57;19.70;71.20
37782;DHT22;23621;50.878;4.584;2022-09-27T16:23:24;19.70;71.40
37782;DHT22;23621;50.878;4.584;2022-09-27T16:25:54;19.80;71.20
37782;DHT22;23621;50.878;4.584;2022-09-27T16:28:20;19.80;71.20
37782;DHT22;23621;50.878;4.584;2022-09-27T16:30:47;19.80;71.40
37782;DHT22;23621;50.878;4.584;2022-09-27T16:33:14;19.80;71.30
37782;DHT22;23621;50.878;4.584;2022-09-27T16:35:41;19.90;71.60
37782;DHT22;23621;50.878;4.584;2022-09-27T16:38:08;19.90;71.70
37782;DHT22;23621;50.878;4.584;2022-09-27T16:40:36;19.90;72.00
37782;DHT22;23621;50.878;4.584;2022-09-27T16:43:03;19.90;72.00
37782;DHT22;23621;50.878;4.584;2022-09-27T16:45:34;19.90;72.00
37782;DHT22;23621;50.878;4.584;2022-09-27T16:48:01;19.80;72.10
37782;DHT22;23621;50.878;4.584;2022-09-27T16:50:28;19.80;72.20
37782;DHT22;23621;50.878;4.584;2022-09-27T16:53:13;19.70;72.10
37782;DHT22;23621;50.878;4.584;2022-09-27T16:55:40;19.60;72.20
37782;DHT22;23621;50.878;4.584;2022-09-27T16:58:06;19.60;72.10
37782;DHT22;23621;50.878;4.584;2022-09-27T17:00:34;19.50;72.00
37782;DHT22;23621;50.878;4.584;2022-09-27T17:03:01;19.50;72.20
37782;DHT22;23621;50.878;4.584;2022-09-27T17:05:28;19.50;72.30
37782;DHT22;23621;50.878;4.584;2022-09-27T17:07:54;19.50;72.40
37782;DHT22;23621;50.878;4.584;2022-09-27T17:10:22;19.50;72.40
37782;DHT22;23621;50.878;4.584;2022-09-27T17:12:49;19.50;72.50
37782;DHT22;23621;50.878;4.584;2022-09-27T17:15:16;19.50;72.50
37782;DHT22;23621;50.878;4.584;2022-09-27T17:17:48;19.40;72.60
37782;DHT22;23621;50.878;4.584;2022-09-27T17:20:15;19.40;72.70
37782;DHT22;23621;50.878;4.584;2022-09-27T17:22:42;19.40;72.90
37782;DHT22;23621;50.878;4.584;2022-09-27T17:25:08;19.40;72.90
37782;DHT22;23621;50.878;4.584;2022-09-27T17:27:35;19.30;72.90
37782;DHT22;23621;50.878;4.584;2022-09-27T17:30:03;19.30;73.00
37782;DHT22;23621;50.878;4.584;2022-09-27T17:32:30;19.30;73.10
37782;DHT22;23621;50.878;4.584;2022-09-27T17:34:57;19.40;73.20
37782;DHT22;23621;50.878;4.584;2022-09-27T17:37:24;19.30;73.20
37782;DHT22;23621;50.878;4.584;2022-09-27T17:39:51;19.40;73.30
37782;DHT22;23621;50.878;4.584;2022-09-27T17:42:18;19.40;73.40
37782;DHT22;23621;50.878;4.584;2022-09-27T17:44:45;19.40;73.30
37782;DHT22;23621;50.878;4.584;2022-09-27T17:47:12;19.30;73.30
37782;DHT22;23621;50.878;4.584;2022-09-27T17:49:57;19.30;73.40
37782;DHT22;23621;50.878;4.584;2022-09-27T17:52:42;19.30;73.40
37782;DHT22;23621;50.878;4.584;2022-09-27T17:55:09;19.30;73.30
37782;DHT22;23621;50.878;4.584;2022-09-27T17:57:36;19.30;73.10
37782;DHT22;23621;50.878;4.584;2022-09-27T18:00:03;19.30;72.90
37782;DHT22;23621;50.878;4.584;2022-09-27T18:02:30;19.20;72.20
37782;DHT22;23621;50.878;4.584;2022-09-27T18:04:57;19.20;71.40
37782;DHT22;23621;50.878;4.584;2022-09-27T18:07:24;19.10;70.50
37782;DHT22;23621;50.878;4.584;2022-09-27T18:09:50;19.00;69.80
37782;DHT22;23621;50.878;4.584;2022-09-27T18:12:17;18.90;69.80
37782;DHT22;23621;50.878;4.584;2022-09-27T18:14:44;18.80;69.80
37782;DHT22;23621;50.878;4.584;2022-09-27T18:17:11;18.70;69.80
37782;DHT22;23621;50.878;4.584;2022-09-27T18:19:39;18.60;70.10
37782;DHT22;23621;50.878;4.584;2022-09-27T18:22:05;18.60;70.20
37782;DHT22;23621;50.878;4.584;2022-09-27T18:24:32;18.50;70.30
37782;DHT22;23621;50.878;4.584;2022-09-27T18:26:59;18.50;70.40
37782;DHT22;23621;50.878;4.584;2022-09-27T18:29:26;18.30;70.50
37782;DHT22;23621;50.878;4.584;2022-09-27T18:31:54;18.20;70.70
37782;DHT22;23621;50.878;4.584;2022-09-27T18:34:22;18.10;71.20
37782;DHT22;23621;50.878;4.584;2022-09-27T18:36:50;18.10;71.30
37782;DHT22;23621;50.878;4.584;2022-09-27T18:39:17;18.10;71.30
37782;DHT22;23621;50.878;4.584;2022-09-27T18:41:46;18.10;71.30
37782;DHT22;23621;50.878;4.584;2022-09-27T18:44:15;18.10;72.10
37782;DHT22;23621;50.878;4.584;2022-09-27T18:46:43;18.20;71.50
37782;DHT22;23621;50.878;4.584;2022-09-27T18:49:12;18.20;71.60
37782;DHT22;23621;50.878;4.584;2022-09-27T18:51:40;18.30;71.80